Time;durP1;ratioP1;P1;durP2;ratioP2;P2;SDS_P1;SDS_P2;PMS_P1;PMS_P2;Temp;Humidity;BMP_temperature;BMP_pressure;BME280_temperature;BME280_humidity;BME280_pressure;Samples;Min_cycle;Max_cycle;Signal;HPM_P1;HPM_P2
2022/11/12 00:01:18;;;;;;;15.80;11.40;;;;;;;10.11;83.54;101751.20;103246;1315;22549;-82
2022/11/12 00:04:03;;;;;;;12.90;10.10;;;;;;;10.09;83.32;101751.50;103387;1315;22564;-82
2022/11/12 00:06:48;;;;;;;14.20;10.90;;;;;;;10.03;83.51;101745.09;103346;1307;24860;-82
2022/11/12 00:09:33;;;;;;;14.80;11.80;;;;;;;10.05;83.73;101745.83;103175;1300;22470;-81
2022/11/12 00:12:34;;;;;;;19.30;12.40;;;;;;;10.06;83.68;101750.06;104557;1310;22731;-79
2022/11/12 00:15:19;;;;;;;18.80;12.80;;;;;;;10.06;83.50;101749.17;104385;1310;22491;-79
2022/11/12 00:18:06;;;;;;;16.70;11.90;;;;;;;10.06;83.61;101754.64;103877;1310;22433;-79
2022/11/12 00:20:52;;;;;;;13.00;11.10;;;;;;;10.09;83.63;101760.69;104341;1304;22484;-81
2022/11/12 00:23:37;;;;;;;15.60;11.50;;;;;;;10.12;83.64;101758.60;103930;1304;25157;-80
2022/11/12 00:26:21;;;;;;;14.90;10.70;;;;;;;10.13;83.44;101756.67;103622;1304;24011;-84
2022/11/12 00:29:06;;;;;;;12.70;11.00;;;;;;;10.15;83.56;101759.34;103647;1304;22454;-78
2022/11/12 00:31:51;;;;;;;13.20;10.50;;;;;;;10.19;83.49;101758.68;103978;1304;24234;-82
2022/11/12 00:38:36;;;;;;;13.20;11.30;;;;;;;10.15;83.30;101763.05;103867;1310;24148;-81
2022/11/12 00:45:48;;;;;;;13.30;10.10;;;;;;;10.18;83.55;101764.65;104481;1310;22484;-78
2022/11/12 00:49:00;;;;;;;15.90;11.20;;;;;;;10.18;83.22;101763.44;104179;1310;24482;-81
2022/11/12 00:55:46;;;;;;;12.90;10.00;;;;;;;10.19;83.49;101754.83;105614;1311;25293;-82
2022/11/12 00:58:57;;;;;;;12.00;9.50;;;;;;;10.23;83.32;101754.52;104384;1300;24264;-80
2022/11/12 01:01:42;;;;;;;12.70;10.30;;;;;;;10.26;83.30;101748.59;105353;1310;22945;-79
2022/11/12 01:08:51;;;;;;;15.20;10.10;;;;;;;10.26;82.94;101751.75;103780;1309;22596;-80
2022/11/12 01:11:40;;;;;;;14.00;10.20;;;;;;;10.20;82.89;101745.33;105958;1304;22473;-81
2022/11/12 01:14:26;;;;;;;17.10;9.70;;;;;;;10.17;83.00;101741.60;104748;1304;22460;-84
2022/11/12 01:17:11;;;;;;;16.00;10.70;;;;;;;10.17;83.05;101740.17;105271;1304;24356;-80
2022/11/12 01:19:56;;;;;;;12.80;10.40;;;;;;;10.18;83.09;101741.42;104000;1310;22499;-80
2022/11/12 01:22:41;;;;;;;13.80;11.90;;;;;;;10.21;83.31;101746.04;104352;1310;22960;-85
2022/11/12 01:25:26;;;;;;;14.00;11.10;;;;;;;10.27;83.43;101742.63;103523;1310;22675;-81
2022/11/12 01:28:11;;;;;;;14.60;10.60;;;;;;;10.33;83.31;101738.64;103303;1310;23900;-78
2022/11/12 01:30:57;;;;;;;14.80;10.80;;;;;;;10.37;83.11;101737.30;103821;1310;22441;-81
2022/11/12 01:33:45;;;;;;;14.40;11.40;;;;;;;10.33;82.67;101743.58;103526;1310;24774;-78
2022/11/12 01:36:33;;;;;;;13.80;11.40;;;;;;;10.25;82.66;101743.65;103003;1308;22514;-82
2022/11/12 01:39:18;;;;;;;14.40;11.80;;;;;;;10.19;82.98;101740.75;102969;1315;22492;-81
2022/11/12 01:42:03;;;;;;;14.40;11.30;;;;;;;10.23;83.31;101742.73;103161;1315;25212;-80
2022/11/12 01:44:52;;;;;;;15.80;10.60;;;;;;;10.22;83.17;101748.88;103424;1309;22536;-81
2022/11/12 01:47:37;;;;;;;14.70;11.70;;;;;;;10.21;83.12;101747.98;103331;1297;24536;-79
2022/11/12 01:50:27;;;;;;;13.80;11.80;;;;;;;10.22;83.19;101754.16;103407;1297;25624;-78
2022/11/12 01:53:12;;;;;;;14.30;11.70;;;;;;;10.18;83.07;101751.46;103544;1309;22543;-80
2022/11/12 01:56:02;;;;;;;11.90;10.60;;;;;;;10.17;83.07;101753.92;104117;1304;24363;-80
2022/11/12 01:58:55;;;;;;;13.00;10.60;;;;;;;10.14;83.11;101753.00;105037;1304;22542;-82
2022/11/12 02:01:41;;;;;;;14.80;11.90;;;;;;;10.11;83.22;101753.13;105638;1304;22473;-80
2022/11/12 02:04:28;;;;;;;13.50;11.50;;;;;;;10.14;83.54;101753.01;104493;1304;24266;-81
2022/11/12 02:07:15;;;;;;;13.30;10.80;;;;;;;10.14;83.26;101752.48;106036;1304;22414;-78
2022/11/12 02:10:02;;;;;;;13.60;10.40;;;;;;;10.12;83.44;101749.27;105545;1304;22429;-80
2022/11/12 02:15:57;;;;;;;13.90;10.10;;;;;;;10.18;83.53;101751.47;104104;1304;22506;-79
2022/11/12 02:18:42;;;;;;;13.60;11.40;;;;;;;10.22;83.50;101751.69;103822;1304;22488;-81
2022/11/12 02:21:28;;;;;;;14.00;10.90;;;;;;;10.19;83.17;101747.25;103827;1304;22816;-82
2022/11/12 02:24:13;;;;;;;14.10;11.20;;;;;;;10.09;83.22;101742.38;104068;1304;22474;-79
2022/11/12 02:27:00;;;;;;;12.50;10.50;;;;;;;10.10;83.28;101746.77;103907;1304;22579;-83
2022/11/12 02:29:45;;;;;;;16.00;11.30;;;;;;;10.07;83.38;101747.08;104130;1304;22468;-86
2022/11/12 02:32:31;;;;;;;15.40;11.60;;;;;;;10.09;83.50;101745.54;104084;1304;25289;-83
2022/11/12 02:35:15;;;;;;;14.10;11.90;;;;;;;10.07;83.59;101752.19;104030;1302;23084;-82
2022/11/12 02:38:03;;;;;;;14.80;11.90;;;;;;;10.08;83.92;101750.80;103578;1304;22474;-80
2022/11/12 02:40:48;;;;;;;14.10;11.00;;;;;;;10.18;83.99;101751.27;103586;1304;22425;-78
2022/11/12 02:43:34;;;;;;;13.50;11.80;;;;;;;10.22;83.52;101756.81;103953;1304;22468;-82
2022/11/12 02:46:19;;;;;;;11.40;10.30;;;;;;;10.20;83.29;101762.58;103456;1292;25735;-81
2022/11/12 02:49:03;;;;;;;14.20;11.50;;;;;;;10.10;83.15;101755.21;103629;1304;25348;-78
2022/11/12 02:51:48;;;;;;;13.10;11.00;;;;;;;10.07;83.51;101757.65;103517;1291;23069;-83
2022/11/12 02:54:36;;;;;;;15.60;11.20;;;;;;;10.07;83.60;101760.46;103833;1304;25354;-82
2022/11/12 02:57:20;;;;;;;14.50;11.20;;;;;;;10.12;83.69;101758.08;103893;1304;26522;-83
2022/11/12 03:00:09;;;;;;;14.70;12.10;;;;;;;10.15;83.41;101757.41;103648;1304;22472;-82
2022/11/12 03:03:00;;;;;;;15.40;12.30;;;;;;;10.15;83.21;101759.18;103975;1304;22582;-85
2022/11/12 03:05:54;;;;;;;16.00;12.10;;;;;;;10.10;83.23;101756.10;103884;1304;22598;-84
2022/11/12 03:08:39;;;;;;;13.80;11.20;;;;;;;10.10;83.38;101758.40;103579;1304;22589;-81
2022/11/12 03:11:27;;;;;;;23.00;12.20;;;;;;;10.13;83.08;101765.66;103730;1304;22487;-81
2022/11/12 03:14:12;;;;;;;16.40;12.10;;;;;;;10.12;83.16;101763.71;103273;1310;22492;-83
2022/11/12 03:16:57;;;;;;;17.10;11.90;;;;;;;10.14;83.14;101766.37;103243;1310;25706;-80
2022/11/12 03:19:42;;;;;;;11.70;10.40;;;;;;;10.14;83.10;101773.77;103287;1310;23895;-81
2022/11/12 03:22:27;;;;;;;13.60;11.90;;;;;;;10.07;82.59;101773.84;103461;1312;22582;-79
2022/11/12 03:25:13;;;;;;;14.90;12.80;;;;;;;10.02;82.61;101777.63;103251;1310;22869;-81
2022/11/12 03:28:03;;;;;;;17.60;13.30;;;;;;;10.00;82.88;101779.00;103137;1309;24359;-81
2022/11/12 03:30:48;;;;;;;13.50;11.40;;;;;;;10.00;82.87;101782.17;103392;1299;24332;-81
2022/11/12 03:33:34;;;;;;;14.80;12.70;;;;;;;9.96;82.47;101784.23;103646;1304;25223;-84
2022/11/12 03:36:18;;;;;;;14.60;11.40;;;;;;;9.87;82.44;101782.85;103954;1304;23949;-81
2022/11/12 03:39:04;;;;;;;14.40;11.90;;;;;;;9.84;82.65;101785.27;104137;1304;22455;-80
2022/11/12 03:41:51;;;;;;;16.30;12.80;;;;;;;9.86;82.74;101782.84;103941;1304;24007;-79
2022/11/12 03:44:37;;;;;;;15.90;13.10;;;;;;;9.86;82.56;101785.13;103665;1304;22553;-80
2022/11/12 03:47:22;;;;;;;14.20;12.50;;;;;;;9.85;82.67;101787.74;103704;1304;22929;-81
2022/11/12 03:50:09;;;;;;;12.40;11.10;;;;;;;9.88;82.74;101785.17;103557;1304;22472;-80
2022/11/12 03:52:57;;;;;;;16.20;13.20;;;;;;;9.88;82.41;101781.47;103043;1310;22581;-81
2022/11/12 03:55:42;;;;;;;16.80;12.50;;;;;;;9.88;82.42;101778.82;103139;1309;25421;-82
2022/11/12 03:58:27;;;;;;;16.70;12.10;;;;;;;9.87;82.37;101781.64;103310;1310;22486;-81
2022/11/12 04:01:13;;;;;;;16.10;13.20;;;;;;;9.81;82.26;101780.82;103358;1310;24366;-81
2022/11/12 04:03:58;;;;;;;13.10;11.80;;;;;;;9.81;82.44;101780.66;103336;1309;23336;-81
2022/11/12 04:09:47;;;;;;;14.80;12.80;;;;;;;9.79;82.43;101774.10;103251;1309;22465;-80
2022/11/12 04:15:36;;;;;;;13.60;12.20;;;;;;;9.77;82.36;101775.48;103824;1304;22443;-81
2022/11/12 04:27:43;;;;;;;17.40;12.00;;;;;;;9.82;82.52;101775.21;103466;1309;25681;-82
2022/11/12 04:30:27;;;;;;;15.50;11.70;;;;;;;9.85;82.17;101778.45;103297;1310;22471;-80
2022/11/12 04:33:14;;;;;;;15.10;12.40;;;;;;;9.88;82.11;101772.33;103281;1310;24269;-82
2022/11/12 04:35:59;;;;;;;;;;;;;;;9.87;81.55;101768.61;103423;1310;25236;-78
2022/11/12 04:38:44;;;;;;;18.50;12.50;;;;;;;9.77;81.38;101770.55;103266;1304;25524;-80
2022/11/12 04:47:39;;;;;;;18.80;12.60;;;;;;;9.62;81.81;101763.46;103837;1304;22852;-83
2022/11/12 04:50:24;;;;;;;22.00;14.60;;;;;;;9.57;82.03;101762.66;103443;1304;22469;-79
2022/11/12 04:53:10;;;;;;;15.60;12.00;;;;;;;9.62;82.19;101763.63;103932;1304;25341;-85
2022/11/12 04:55:57;;;;;;;16.00;12.40;;;;;;;9.59;81.85;101761.98;103153;1309;22651;-80
2022/11/12 04:58:43;;;;;;;16.30;13.70;;;;;;;9.59;81.98;101760.58;103376;1310;22506;-80
2022/11/12 05:01:28;;;;;;;19.20;13.90;;;;;;;9.54;81.70;101764.20;103055;1310;22471;-82
2022/11/12 05:04:13;;;;;;;18.80;13.80;;;;;;;9.49;81.56;101770.44;103236;1310;23703;-83
2022/11/12 05:06:59;;;;;;;19.50;14.50;;;;;;;9.45;81.66;101767.55;103505;1310;22477;-83
2022/11/12 05:09:52;;;;;;;17.30;14.00;;;;;;;9.40;81.55;101770.98;105523;1310;23384;-82
2022/11/12 05:12:39;;;;;;;18.20;12.70;;;;;;;9.35;81.82;101767.89;105428;1314;22482;-79
2022/11/12 05:15:24;;;;;;;19.40;14.60;;;;;;;9.39;81.86;101772.89;105106;1310;22679;-82
2022/11/12 05:18:09;;;;;;;19.30;15.10;;;;;;;9.45;81.79;101769.31;106654;1310;22259;-81
2022/11/12 05:20:53;;;;;;;18.60;14.10;;;;;;;9.49;81.63;101773.07;104528;1297;24243;-78
2022/11/12 05:23:39;;;;;;;22.50;15.60;;;;;;;9.45;81.12;101767.73;104098;1309;22473;-79
2022/11/12 05:26:25;;;;;;;18.70;14.50;;;;;;;9.37;80.68;101770.22;103298;1310;22473;-82
2022/11/12 05:29:10;;;;;;;18.60;14.70;;;;;;;9.26;81.02;101777.77;104161;1310;22567;-82
2022/11/12 05:31:55;;;;;;;20.80;15.40;;;;;;;9.22;81.01;101779.81;103355;1303;23552;-84
2022/11/12 05:34:41;;;;;;;19.70;15.90;;;;;;;9.12;80.98;101780.31;104156;1315;22827;-81
2022/11/12 05:37:26;;;;;;;21.90;15.90;;;;;;;9.07;81.31;101780.58;105319;1309;23044;-79
2022/11/12 05:40:11;;;;;;;22.00;15.60;;;;;;;9.10;81.35;101790.27;104980;1309;22477;-78
2022/11/12 05:42:56;;;;;;;23.30;15.80;;;;;;;9.10;81.24;101791.70;104697;1310;22613;-80
2022/11/12 05:45:43;;;;;;;21.40;16.80;;;;;;;9.09;81.11;101790.29;103689;1309;22878;-85
2022/11/12 05:48:27;;;;;;;21.60;17.30;;;;;;;9.04;81.21;101789.85;103312;1309;23903;-82
2022/11/12 05:51:13;;;;;;;20.90;16.70;;;;;;;9.10;81.45;101794.34;103848;1295;23216;-81
2022/11/12 05:53:59;;;;;;;19.00;15.80;;;;;;;9.09;81.22;101797.99;103684;1304;22725;-81
2022/11/12 05:56:45;;;;;;;19.00;16.40;;;;;;;9.12;81.34;101801.59;103838;1303;24021;-74
2022/11/12 05:59:30;;;;;;;20.20;15.70;;;;;;;9.08;80.95;101798.85;103718;1295;23521;-82
2022/11/12 06:02:14;;;;;;;19.40;15.30;;;;;;;9.03;81.14;101806.14;103537;1304;25262;-76
2022/11/12 06:04:59;;;;;;;17.90;14.30;;;;;;;8.98;81.30;101810.27;103308;1310;22476;-77
2022/11/12 06:07:44;;;;;;;18.90;16.90;;;;;;;8.95;81.71;101808.80;102960;1315;22500;-80
2022/11/12 06:10:29;;;;;;;19.00;16.00;;;;;;;8.95;81.34;101807.04;102969;1315;25488;-78
2022/11/12 06:13:14;;;;;;;22.30;17.70;;;;;;;8.86;81.17;101805.82;103108;1309;22698;-75
2022/11/12 06:15:59;;;;;;;20.90;16.80;;;;;;;8.77;81.40;101808.80;102790;1315;25374;-78
2022/11/12 06:18:44;;;;;;;20.20;16.70;;;;;;;8.74;81.49;101815.41;102690;1315;22682;-77
2022/11/12 06:21:29;;;;;;;21.20;18.80;;;;;;;8.66;81.32;101811.19;102810;1315;25351;-78
2022/11/12 06:24:14;;;;;;;18.80;16.80;;;;;;;8.62;81.81;101815.48;103324;1309;22504;-77
2022/11/12 06:26:59;;;;;;;19.20;16.50;;;;;;;8.59;81.76;101816.31;104164;1304;22661;-83
2022/11/12 06:29:44;;;;;;;20.50;16.80;;;;;;;8.56;81.80;101816.61;103896;1304;22426;-82
2022/11/12 06:32:29;;;;;;;17.50;15.30;;;;;;;8.53;81.79;101815.77;104363;1304;22428;-80
2022/11/12 06:35:14;;;;;;;20.00;17.90;;;;;;;8.48;81.52;101816.56;104687;1303;22928;-81
2022/11/12 06:37:59;;;;;;;20.10;18.00;;;;;;;8.46;81.65;101819.83;104594;1303;22592;-80
2022/11/12 06:40:44;;;;;;;20.40;17.20;;;;;;;8.45;81.65;101816.84;104512;1304;23814;-80
2022/11/12 06:43:30;;;;;;;18.90;16.50;;;;;;;8.42;81.52;101816.60;104264;1304;22421;-83
2022/11/12 06:46:15;;;;;;;;;;;;;;;8.40;81.86;101818.48;104463;1297;22566;-81
2022/11/12 06:49:01;;;;;;;21.00;18.70;;;;;;;8.46;81.79;101827.92;104364;1304;22474;-80
2022/11/12 06:51:45;;;;;;;19.70;17.60;;;;;;;8.40;81.52;101829.55;104131;1304;24369;-82
2022/11/12 06:54:30;;;;;;;22.80;19.20;;;;;;;8.40;81.76;101833.77;103700;1304;22753;-81
2022/11/12 06:57:15;;;;;;;22.80;20.40;;;;;;;8.44;81.72;101835.08;103810;1304;23100;-82
2022/11/12 07:00:00;;;;;;;26.60;21.40;;;;;;;8.49;81.92;101832.89;103725;1304;22555;-80
2022/11/12 07:02:45;;;;;;;32.40;23.30;;;;;;;8.55;81.94;101837.10;103640;1311;22395;-82
2022/11/12 07:05:30;;;;;;;29.70;22.00;;;;;;;8.58;81.60;101845.79;103467;1311;22468;-82
2022/11/12 07:08:15;;;;;;;23.30;20.50;;;;;;;8.56;81.65;101843.80;103493;1311;24276;-81
2022/11/12 07:10:59;;;;;;;25.60;21.40;;;;;;;8.61;81.77;101847.08;103596;1310;22466;-79
2022/11/12 07:13:46;;;;;;;27.00;22.40;;;;;;;8.70;81.82;101850.61;104875;1310;22524;-82
2022/11/12 07:16:32;;;;;;;24.70;21.30;;;;;;;8.68;81.43;101847.41;103522;1310;22486;-82
2022/11/12 07:19:17;;;;;;;24.60;21.40;;;;;;;8.66;81.61;101847.00;103458;1310;22656;-82
2022/11/12 07:22:02;;;;;;;23.60;19.40;;;;;;;8.70;81.73;101851.67;103552;1310;22605;-81
2022/11/12 07:24:46;;;;;;;23.40;20.60;;;;;;;8.75;81.71;101852.46;103535;1310;22736;-81
2022/11/12 07:27:31;;;;;;;26.10;21.50;;;;;;;8.75;81.47;101850.35;103538;1304;22468;-82
2022/11/12 07:30:16;;;;;;;26.20;22.20;;;;;;;8.76;81.64;101849.68;103802;1304;25367;-82
2022/11/12 07:33:01;;;;;;;26.30;21.90;;;;;;;8.75;81.61;101851.08;103871;1303;22406;-83
2022/11/12 07:35:46;;;;;;;24.70;21.80;;;;;;;8.81;81.87;101853.48;103526;1309;25226;-81
2022/11/12 07:38:34;;;;;;;24.60;21.20;;;;;;;8.80;81.27;101854.52;103515;1294;24370;-81
2022/11/12 07:41:23;;;;;;;25.60;21.70;;;;;;;8.76;81.53;101858.13;103121;1309;22740;-82
2022/11/12 07:44:09;;;;;;;24.80;20.80;;;;;;;8.71;81.35;101861.17;103388;1311;25651;-84
2022/11/12 07:46:54;;;;;;;26.30;21.70;;;;;;;8.65;81.41;101859.98;103328;1312;23712;-81
2022/11/12 07:49:39;;;;;;;31.40;23.60;;;;;;;8.58;81.54;101863.70;103329;1309;22514;-81
2022/11/12 07:52:23;;;;;;;27.60;22.20;;;;;;;8.59;82.04;101860.90;103469;1309;23591;-82
2022/11/12 07:55:08;;;;;;;24.70;21.50;;;;;;;8.56;81.80;101857.34;103902;1306;25897;-82
2022/11/12 07:57:53;;;;;;;30.50;25.40;;;;;;;8.55;82.01;101852.38;103633;1304;22461;-82
2022/11/12 08:00:38;;;;;;;33.60;27.00;;;;;;;8.59;82.19;101854.77;103596;1304;22469;-81
2022/11/12 08:03:22;;;;;;;29.40;25.50;;;;;;;8.56;82.24;101856.98;103837;1304;22450;-81
2022/11/12 08:06:07;;;;;;;28.00;25.00;;;;;;;8.57;82.17;101855.77;103631;1304;22440;-80
2022/11/12 08:08:56;;;;;;;29.20;24.20;;;;;;;8.59;82.46;101851.27;103388;1309;22766;-81
2022/11/12 08:11:42;;;;;;;27.60;24.60;;;;;;;8.70;82.51;101857.10;102801;1300;23242;-80
2022/11/12 08:14:26;;;;;;;32.80;26.30;;;;;;;8.78;82.66;101861.33;103100;1315;23153;-81
2022/11/12 08:17:11;;;;;;;26.90;23.90;;;;;;;8.82;82.26;101859.13;103257;1315;22508;-80
2022/11/12 08:19:56;;;;;;;23.90;21.50;;;;;;;8.77;81.87;101856.04;104377;1315;22565;-80
2022/11/12 08:22:41;;;;;;;26.50;23.80;;;;;;;8.76;82.14;101861.30;105434;1315;25437;-80
2022/11/12 08:25:34;;;;;;;30.40;24.70;;;;;;;8.86;82.30;101867.65;105457;1315;22666;-81
2022/11/12 08:28:18;;;;;;;29.00;24.80;;;;;;;8.88;81.80;101869.45;106269;1310;22123;-85
2022/11/12 08:31:08;;;;;;;25.90;22.80;;;;;;;8.89;81.84;101866.13;105557;1304;24359;-80
2022/11/12 08:33:53;;;;;;;25.80;22.90;;;;;;;8.89;81.69;101866.49;104581;1304;22659;-81
2022/11/12 08:36:38;;;;;;;27.70;24.00;;;;;;;8.92;81.70;101871.12;103860;1304;22460;-81
2022/11/12 08:39:23;;;;;;;28.10;24.90;;;;;;;8.97;81.67;101872.81;103817;1304;23112;-80
2022/11/12 08:42:08;;;;;;;30.00;26.80;;;;;;;8.94;81.24;101869.05;103666;1288;24084;-80
2022/11/12 08:44:52;;;;;;;28.90;24.90;;;;;;;8.88;81.57;101869.98;103663;1288;23907;-79
2022/11/12 08:47:37;;;;;;;26.40;22.90;;;;;;;8.92;81.76;101871.11;103566;1304;22457;-82
2022/11/12 08:50:22;;;;;;;27.20;22.70;;;;;;;8.95;81.58;101873.62;103564;1304;22670;-81
2022/11/12 08:53:10;;;;;;;27.90;24.70;;;;;;;8.94;81.46;101881.69;103787;1304;22454;-79
2022/11/12 08:55:55;;;;;;;27.50;24.60;;;;;;;8.91;81.38;101877.58;104620;1304;22419;-81
2022/11/12 08:58:40;;;;;;;29.10;25.40;;;;;;;8.86;81.53;101880.83;104382;1304;22468;-80
2022/11/12 09:01:26;;;;;;;30.00;25.60;;;;;;;8.89;81.52;101882.64;104386;1304;25281;-81
2022/11/12 09:04:10;;;;;;;26.00;23.20;;;;;;;8.96;81.82;101888.06;104231;1304;22462;-81
2022/11/12 09:06:55;;;;;;;30.30;24.20;;;;;;;8.98;81.32;101887.74;103864;1304;22480;-80
2022/11/12 09:09:40;;;;;;;33.60;27.80;;;;;;;8.90;81.12;101890.40;103939;1304;22578;-80
2022/11/12 09:12:25;;;;;;;27.90;24.90;;;;;;;8.84;81.20;101888.51;103657;1304;22464;-81
2022/11/12 09:15:09;;;;;;;31.60;26.80;;;;;;;8.80;81.38;101889.30;103706;1304;22620;-80
2022/11/12 09:18:17;;;;;;;28.40;25.20;;;;;;;8.74;81.30;101894.09;103570;1304;22451;-81
2022/11/12 09:21:08;;;;;;;32.90;26.00;;;;;;;8.73;81.50;101898.81;103656;1281;24343;-81
2022/11/12 09:23:54;;;;;;;28.70;25.40;;;;;;;8.70;81.65;101898.73;103496;1304;22466;-81
2022/11/12 09:26:39;;;;;;;27.60;24.70;;;;;;;8.72;81.58;101902.64;103672;1291;24231;-80
2022/11/12 09:29:24;;;;;;;29.20;26.10;;;;;;;8.75;81.63;101898.84;103750;1304;22462;-80
2022/11/12 09:32:09;;;;;;;29.20;25.80;;;;;;;8.82;81.80;101895.85;103770;1304;22490;-81
2022/11/12 09:34:54;;;;;;;31.10;26.40;;;;;;;8.90;81.77;101895.68;103713;1304;22870;-79
2022/11/12 09:37:39;;;;;;;33.30;28.40;;;;;;;8.89;81.44;101896.70;103902;1304;22968;-80
2022/11/12 09:40:40;;;;;;;27.80;24.80;;;;;;;8.91;81.35;101892.70;103754;1304;22461;-81
2022/11/12 09:44:08;;;;;;;26.80;24.00;;;;;;;8.90;81.47;101896.20;103768;1304;25887;-80
2022/11/12 09:46:58;;;;;;;;;;;;;;;8.93;81.28;101891.51;103527;1312;22452;-81
2022/11/12 09:50:15;;;;;;;25.00;22.40;;;;;;;8.93;81.02;101890.11;103777;1303;26521;-81
2022/11/12 09:53:06;;;;;;;27.30;24.40;;;;;;;8.86;80.96;101896.98;103926;1304;22463;-80
2022/11/12 09:55:52;;;;;;;27.80;24.60;;;;;;;8.83;81.19;101897.97;103663;1292;23239;-80
2022/11/12 09:58:37;;;;;;;27.00;24.20;;;;;;;8.86;81.22;101901.39;103871;1304;22463;-82
2022/11/12 10:01:42;;;;;;;27.70;24.20;;;;;;;8.92;81.25;101897.81;103566;1303;191925;-81
2022/11/12 10:04:58;;;;;;;25.50;22.80;;;;;;;8.96;81.05;101898.42;103538;1304;25349;-80
2022/11/12 10:08:16;;;;;;;28.30;24.10;;;;;;;8.97;81.12;101902.34;104577;1304;25336;-81
2022/11/12 10:11:22;;;;;;;26.80;23.20;;;;;;;9.00;81.05;101905.89;103680;1304;22519;-82
2022/11/12 10:14:28;;;;;;;24.00;21.40;;;;;;;9.03;80.96;101902.27;103517;1284;24209;-80
2022/11/12 10:17:54;;;;;;;27.30;23.90;;;;;;;9.02;80.78;101896.80;104053;1291;24240;-81
2022/11/12 10:20:51;;;;;;;24.80;22.20;;;;;;;9.02;80.68;101899.98;103579;1304;22851;-82
2022/11/12 10:23:49;;;;;;;27.20;24.30;;;;;;;9.01;80.82;101910.13;103178;1309;22536;-81
2022/11/12 10:26:36;;;;;;;25.40;22.70;;;;;;;8.99;80.77;101915.36;103183;1309;22996;-79
2022/11/12 10:29:50;;;;;;;25.20;22.60;;;;;;;8.98;80.71;101917.29;103186;1309;22465;-80
2022/11/12 10:32:36;;;;;;;23.30;20.90;;;;;;;9.02;80.75;101920.52;103205;1310;25518;-79
2022/11/12 10:35:23;;;;;;;22.80;20.40;;;;;;;9.02;80.72;101917.89;102666;1317;22483;-83
2022/11/12 10:38:17;;;;;;;22.80;20.50;;;;;;;8.98;80.60;101912.35;103349;1318;25320;-81
2022/11/12 10:41:18;;;;;;;23.60;21.20;;;;;;;8.99;80.75;101915.02;103079;1318;25448;-79
2022/11/12 10:44:05;;;;;;;21.30;19.20;;;;;;;9.03;80.75;101915.81;103180;1317;25239;-79
2022/11/12 10:46:50;;;;;;;25.80;22.00;;;;;;;9.10;80.79;101914.89;103070;1318;22776;-81
2022/11/12 10:49:36;;;;;;;23.70;21.40;;;;;;;9.15;80.64;101916.41;103541;1317;24403;-80
2022/11/12 10:52:23;;;;;;;25.10;22.50;;;;;;;9.16;80.45;101917.84;103187;1312;22478;-81
2022/11/12 10:55:18;;;;;;;24.30;21.90;;;;;;;9.12;80.29;101915.13;103321;1289;24536;-81
2022/11/12 10:58:19;;;;;;;22.80;20.40;;;;;;;9.16;80.79;101913.77;103224;1304;22460;-81
2022/11/12 11:01:13;;;;;;;23.20;19.40;;;;;;;9.27;80.75;101914.54;103628;1304;25183;-79
2022/11/12 11:03:58;;;;;;;24.50;21.50;;;;;;;9.31;80.17;101910.40;103515;1304;24021;-82
2022/11/12 11:06:44;;;;;;;23.80;21.30;;;;;;;9.25;79.89;101914.67;103775;1304;22602;-81
2022/11/12 11:09:30;;;;;;;22.70;20.40;;;;;;;9.21;80.06;101919.53;103610;1304;25196;-81
2022/11/12 11:12:29;;;;;;;22.60;20.20;;;;;;;9.14;79.99;101918.15;103898;1304;24254;-81
2022/11/12 11:15:22;;;;;;;23.90;20.00;;;;;;;9.15;80.30;101917.65;103768;1304;22579;-82
2022/11/12 11:18:11;;;;;;;22.40;20.30;;;;;;;9.23;80.33;101917.27;103255;1312;24040;-81
2022/11/12 11:21:03;;;;;;;24.40;21.80;;;;;;;9.22;80.00;101911.11;103349;1312;23946;-81
2022/11/12 11:24:26;;;;;;;23.60;21.10;;;;;;;9.24;80.12;101910.61;103693;1313;22954;-81
2022/11/12 11:27:18;;;;;;;19.60;17.60;;;;;;;9.27;79.86;101914.91;104273;1312;22524;-79
2022/11/12 11:30:24;;;;;;;19.70;17.70;;;;;;;9.24;79.69;101914.13;105853;1312;22423;-81
2022/11/12 11:33:29;;;;;;;21.20;19.00;;;;;;;9.25;79.67;101906.59;104316;1315;25358;-80
2022/11/12 11:36:14;;;;;;;21.40;18.30;;;;;;;9.22;79.46;101909.70;106240;1309;22471;-80
2022/11/12 11:39:14;;;;;;;19.70;17.60;;;;;;;9.22;79.58;101914.79;105133;1315;22475;-80
2022/11/12 11:42:15;;;;;;;19.80;17.70;;;;;;;9.21;79.43;101916.71;103812;1315;26482;-81
2022/11/12 11:45:41;;;;;;;20.90;17.40;;;;;;;9.22;79.34;101919.89;103188;1315;22469;-84
2022/11/12 11:48:55;;;;;;;19.70;17.30;;;;;;;9.24;79.25;101928.73;103202;1315;22510;-80
2022/11/12 11:51:58;;;;;;;20.30;18.20;;;;;;;9.20;79.28;101923.55;103310;1312;23465;-81
2022/11/12 11:55:04;;;;;;;20.30;18.10;;;;;;;9.19;79.32;101927.75;103532;1312;24429;-80
2022/11/12 11:58:09;;;;;;;18.30;16.30;;;;;;;9.18;79.19;101928.08;103639;1306;22454;-83
2022/11/12 12:01:29;;;;;;;18.50;16.50;;;;;;;9.12;79.17;101921.97;104140;1306;25290;-80
2022/11/12 12:04:45;;;;;;;18.60;16.30;;;;;;;9.16;79.51;101920.29;104183;1304;24228;-81
2022/11/12 12:07:34;;;;;;;21.30;19.10;;;;;;;9.18;79.12;101916.46;104031;1304;24302;-82
2022/11/12 12:10:44;;;;;;;17.90;16.10;;;;;;;9.14;79.19;101914.45;105127;1304;22929;-79
2022/11/12 12:14:24;;;;;;;18.20;16.20;;;;;;;9.17;79.38;101910.47;104263;1304;24267;-81
2022/11/12 12:17:52;;;;;;;18.10;14.80;;;;;;;9.23;79.13;101912.37;103851;1304;22457;-84
2022/11/12 12:20:47;;;;;;;17.70;14.00;;;;;;;9.27;79.02;101911.92;103169;1298;24369;-81
2022/11/12 12:23:49;;;;;;;16.30;14.50;;;;;;;9.31;79.05;101910.39;103710;1304;22463;-84
2022/11/12 12:26:45;;;;;;;16.20;14.40;;;;;;;9.34;78.93;101918.37;103535;1307;22484;-82
2022/11/12 12:29:42;;;;;;;15.20;13.60;;;;;;;9.37;78.89;101901.04;104066;1301;22606;-81
2022/11/12 12:32:42;;;;;;;15.10;13.00;;;;;;;9.40;78.83;101903.55;104912;1304;22508;-80
2022/11/12 12:35:31;;;;;;;15.60;13.20;;;;;;;9.45;78.66;101906.48;104339;1304;25912;-82
2022/11/12 12:39:02;;;;;;;17.40;13.70;;;;;;;9.50;78.64;101905.16;103781;1307;25891;-82
2022/11/12 12:42:03;;;;;;;17.20;13.70;;;;;;;9.52;78.33;101902.92;103868;1304;22478;-80
2022/11/12 12:45:00;;;;;;;17.20;13.90;;;;;;;9.46;78.15;101904.38;103826;1304;22601;-81
2022/11/12 12:47:47;;;;;;;14.50;12.30;;;;;;;9.44;78.40;101908.91;103775;1304;24276;-81
2022/11/12 12:50:37;;;;;;;16.00;13.70;;;;;;;9.43;78.25;101905.73;103894;1304;25351;-80
2022/11/12 12:53:28;;;;;;;15.70;13.20;;;;;;;9.45;78.53;101898.20;103738;1304;22457;-82
2022/11/12 12:56:13;;;;;;;14.70;13.10;;;;;;;9.51;78.74;101907.12;103498;1309;23912;-82
2022/11/12 12:59:02;;;;;;;15.50;12.40;;;;;;;9.55;78.41;101905.95;103484;1313;23914;-81
2022/11/12 13:02:01;;;;;;;15.00;12.60;;;;;;;9.52;78.28;101903.27;103178;1297;24237;-81
2022/11/12 13:04:56;;;;;;;15.40;12.90;;;;;;;9.52;78.32;101901.86;103413;1310;24722;-80
2022/11/12 13:07:47;;;;;;;15.40;13.20;;;;;;;9.56;78.24;101905.62;103354;1310;24034;-81
2022/11/12 13:10:35;;;;;;;17.00;14.00;;;;;;;9.50;78.23;101902.35;103487;1309;22461;-82
2022/11/12 13:13:20;;;;;;;14.80;13.10;;;;;;;9.50;78.38;101909.73;103334;1307;25221;-82
2022/11/12 13:16:07;;;;;;;14.40;12.90;;;;;;;9.50;78.53;101909.37;103882;1298;25865;-81
2022/11/12 13:18:51;;;;;;;16.10;12.60;;;;;;;9.47;78.52;101908.09;103809;1292;24287;-83
2022/11/12 13:21:36;;;;;;;13.20;11.70;;;;;;;9.47;78.50;101912.48;104123;1304;24359;-80
2022/11/12 13:25:00;;;;;;;13.90;12.40;;;;;;;9.47;78.66;101913.90;103635;1304;25423;-84
2022/11/12 13:27:45;;;;;;;14.30;12.70;;;;;;;9.52;78.49;101917.70;103924;1304;22475;-82
2022/11/12 13:30:31;;;;;;;15.10;13.00;;;;;;;9.51;78.54;101916.61;103756;1291;24221;-82
2022/11/12 13:33:26;;;;;;;16.70;13.70;;;;;;;9.56;78.81;101918.45;103898;1301;26814;-80